Time;durP1;ratioP1;P1;durP2;ratioP2;P2;SDS_P1;SDS_P2;PMS_P1;PMS_P2;Temp;Humidity;BMP_temperature;BMP_pressure;BME280_temperature;BME280_humidity;BME280_pressure;Samples;Min_cycle;Max_cycle;Signal;HPM_P1;HPM_P2
2022/10/05 00:00:35;;;;;;;8.68;7.88;;;23.10;99.90;;;;;;6204002;28;89085;-63
2022/10/05 00:03:39;;;;;;;8.07;7.28;;;23.10;99.90;;;;;;6192779;28;90286;-63
2022/10/05 00:06:42;;;;;;;7.95;7.25;;;23.10;99.90;;;;;;6204699;28;89049;-63
2022/10/05 00:09:51;;;;;;;8.35;7.55;;;23.10;99.90;;;;;;6204776;28;89570;-63
2022/10/05 00:12:53;;;;;;;7.80;7.10;;;23.10;99.90;;;;;;6205038;28;87917;-63
2022/10/05 00:15:59;;;;;;;8.38;7.57;;;23.10;99.90;;;;;;6188013;28;89101;-63
2022/10/05 00:19:01;;;;;;;8.68;7.88;;;23.10;99.90;;;;;;6207142;28;89098;-63
2022/10/05 00:22:13;;;;;;;8.32;7.53;;;23.10;99.90;;;;;;6206377;28;89130;-63
2022/10/05 00:25:21;;;;;;;8.70;7.90;;;23.00;99.90;;;;;;6206275;28;90371;-63
2022/10/05 00:28:26;;;;;;;8.25;7.50;;;23.10;99.90;;;;;;6205033;28;89028;-63
2022/10/05 00:31:33;;;;;;;8.75;7.95;;;23.10;99.90;;;;;;6195494;28;89307;-63
2022/10/05 00:34:35;;;;;;;8.80;7.90;;;23.10;99.90;;;;;;6206044;28;90032;-63
2022/10/05 00:37:37;;;;;;;8.82;8.02;;;23.00;99.90;;;;;;6208902;28;89054;-63
2022/10/05 00:41:00;;;;;;;8.82;8.02;;;23.10;99.90;;;;;;6204967;28;89874;-63
2022/10/05 00:44:24;;;;;;;9.25;8.35;;;23.00;99.90;;;;;;6207040;28;88982;-63
2022/10/05 00:47:41;;;;;;;8.52;7.72;;;23.00;99.90;;;;;;6202366;28;89166;-63
2022/10/05 00:50:59;;;;;;;8.73;7.93;;;23.00;99.90;;;;;;6204303;28;89098;-63
2022/10/05 00:54:14;;;;;;;8.85;8.05;;;23.00;99.90;;;;;;6207800;28;89179;-63
2022/10/05 00:57:33;;;;;;;8.95;8.15;;;23.00;99.90;;;;;;6204229;28;88527;-63
2022/10/05 01:00:41;;;;;;;9.23;8.32;;;23.00;99.90;;;;;;6207575;28;89082;-63
2022/10/05 01:03:55;;;;;;;8.82;8.02;;;23.00;99.90;;;;;;6197241;28;89212;-63
2022/10/05 01:07:09;;;;;;;9.25;8.35;;;23.00;99.90;;;;;;6200734;28;90248;-63
2022/10/05 01:10:22;;;;;;;8.75;7.95;;;23.00;99.90;;;;;;6205185;28;89372;-63
2022/10/05 01:13:31;;;;;;;9.13;8.23;;;23.00;99.90;;;;;;6205285;28;89186;-63
2022/10/05 01:16:40;;;;;;;9.48;8.57;;;23.00;99.90;;;;;;6192034;28;89145;-63
2022/10/05 01:20:24;;;;;;;9.18;8.27;;;23.00;99.90;;;;;;6196904;28;89064;-64
2022/10/05 01:23:59;;;;;;;9.05;8.25;;;23.00;99.90;;;;;;6191330;28;89247;-63
2022/10/05 01:27:13;;;;;;;8.60;7.80;;;23.00;99.90;;;;;;6192108;28;87976;-63
2022/10/05 01:30:19;;;;;;;8.75;7.95;;;22.90;99.90;;;;;;6207610;28;88393;-64
2022/10/05 01:33:30;;;;;;;8.57;7.78;;;23.00;99.90;;;;;;6203908;28;88984;-63
2022/10/05 01:36:40;;;;;;;8.95;8.05;;;23.00;99.90;;;;;;6194469;28;89114;-63
2022/10/05 01:39:53;;;;;;;8.45;7.65;;;23.00;99.90;;;;;;6203715;28;90035;-63
2022/10/05 01:43:05;;;;;;;9.00;8.20;;;22.90;99.90;;;;;;6186875;28;89485;-63
2022/10/05 01:46:19;;;;;;;9.02;8.23;;;23.00;99.90;;;;;;6193089;28;88999;-63
2022/10/05 01:49:36;;;;;;;9.18;8.27;;;22.90;99.90;;;;;;6204814;28;89037;-63
2022/10/05 01:52:48;;;;;;;8.30;7.60;;;22.90;99.90;;;;;;6199438;28;89125;-63
2022/10/05 01:55:56;;;;;;;8.77;7.97;;;22.90;99.90;;;;;;6205022;28;89098;-63
2022/10/05 01:59:14;;;;;;;9.10;8.25;;;22.90;99.90;;;;;;6197504;28;91508;-63
2022/10/05 02:02:21;;;;;;;8.57;7.78;;;22.90;99.90;;;;;;6201834;28;88273;-63
2022/10/05 02:05:30;;;;;;;8.20;7.50;;;22.80;99.90;;;;;;6198425;28;90170;-63
2022/10/05 02:08:38;;;;;;;8.57;7.78;;;22.90;99.90;;;;;;6193171;28;89047;-63
2022/10/05 02:11:43;;;;;;;8.75;7.95;;;22.90;99.90;;;;;;6189840;28;89987;-63
2022/10/05 02:14:50;;;;;;;8.23;7.53;;;22.90;99.90;;;;;;6205955;28;89035;-63
2022/10/05 02:17:59;;;;;;;8.70;7.90;;;22.90;99.90;;;;;;6200625;28;89373;-63
2022/10/05 02:21:03;;;;;;;8.70;7.90;;;22.80;99.90;;;;;;6203064;28;88848;-63
2022/10/05 02:24:11;;;;;;;8.50;7.78;;;22.90;99.90;;;;;;6199477;28;89042;-63
2022/10/05 02:27:19;;;;;;;8.38;7.57;;;22.80;99.90;;;;;;6201246;28;89030;-63
2022/10/05 02:30:21;;;;;;;8.02;7.32;;;22.90;99.90;;;;;;6205523;28;89151;-63
2022/10/05 02:33:28;;;;;;;7.88;7.10;;;22.80;99.90;;;;;;6201322;28;88323;-63
2022/10/05 02:36:35;;;;;;;8.15;7.45;;;22.80;99.90;;;;;;6200680;28;89194;-63
2022/10/05 02:39:46;;;;;;;7.70;6.97;;;22.80;99.90;;;;;;6182551;28;89216;-63
2022/10/05 02:42:56;;;;;;;7.90;7.20;;;22.80;99.90;;;;;;6179447;28;89943;-63
2022/10/05 02:46:07;;;;;;;7.80;7.10;;;22.80;99.90;;;;;;6197692;28;89165;-63
2022/10/05 02:49:20;;;;;;;7.78;7.07;;;22.80;99.90;;;;;;6205590;28;89134;-63
2022/10/05 02:52:31;;;;;;;8.15;7.35;;;22.80;99.90;;;;;;6199845;28;89103;-63
2022/10/05 02:55:39;;;;;;;7.63;6.93;;;22.80;99.90;;;;;;6201455;28;89049;-63
2022/10/05 02:58:47;;;;;;;8.27;7.47;;;22.80;99.90;;;;;;6196577;28;90230;-63
2022/10/05 03:01:52;;;;;;;8.00;7.20;;;22.80;99.90;;;;;;6197445;28;89053;-63
2022/10/05 03:05:05;;;;;;;7.65;6.95;;;22.80;99.90;;;;;;6203973;28;88887;-63
2022/10/05 03:08:13;;;;;;;7.00;6.40;;;22.80;99.90;;;;;;6203674;28;89480;-63
2022/10/05 03:11:25;;;;;;;7.55;6.85;;;22.80;99.90;;;;;;6204871;28;89121;-63
2022/10/05 03:14:33;;;;;;;7.10;6.40;;;22.80;99.90;;;;;;6200186;28;90084;-63
2022/10/05 03:17:43;;;;;;;7.25;6.65;;;22.70;99.90;;;;;;6199133;28;88947;-63
2022/10/05 03:20:54;;;;;;;6.88;6.28;;;22.80;99.90;;;;;;6201583;28;89053;-63
2022/10/05 03:24:12;;;;;;;6.80;6.20;;;22.70;99.90;;;;;;6199124;28;89211;-62
2022/10/05 03:27:29;;;;;;;6.85;6.25;;;22.70;99.90;;;;;;6196507;28;89151;-63
2022/10/05 03:30:37;;;;;;;7.00;6.40;;;22.80;99.90;;;;;;6196067;28;89155;-63
2022/10/05 03:33:45;;;;;;;6.95;6.25;;;22.80;99.90;;;;;;6205038;28;89513;-63
2022/10/05 03:36:56;;;;;;;6.82;6.22;;;22.70;99.90;;;;;;6205235;28;88365;-63
2022/10/05 03:40:06;;;;;;;6.93;6.30;;;22.80;99.90;;;;;;6198621;28;89151;-63
2022/10/05 03:43:24;;;;;;;7.07;6.38;;;22.70;99.90;;;;;;6204142;28;88980;-63
2022/10/05 03:46:39;;;;;;;6.70;6.10;;;22.70;99.90;;;;;;6195747;28;89959;-63
2022/10/05 03:49:56;;;;;;;6.25;5.65;;;22.80;99.90;;;;;;6196271;28;89060;-63
2022/10/05 03:53:04;;;;;;;6.43;5.82;;;22.80;99.90;;;;;;6195985;28;87978;-63
2022/10/05 03:56:14;;;;;;;6.30;5.80;;;22.80;99.90;;;;;;6186005;28;89114;-63
2022/10/05 03:59:20;;;;;;;6.57;5.82;;;22.90;99.90;;;;;;6193841;28;89417;-63
2022/10/05 04:02:27;;;;;;;6.43;5.82;;;22.90;99.90;;;;;;6199040;28;89095;-63
2022/10/05 04:05:33;;;;;;;6.78;6.13;;;22.90;99.90;;;;;;6207151;28;89075;-63
2022/10/05 04:08:44;;;;;;;6.32;5.72;;;22.90;99.90;;;;;;6209845;28;88362;-63
2022/10/05 04:11:51;;;;;;;6.00;5.50;;;22.90;99.90;;;;;;6197574;28;89396;-63
2022/10/05 04:14:57;;;;;;;6.30;5.70;;;22.90;99.90;;;;;;6193896;28;90002;-63
2022/10/05 04:18:03;;;;;;;6.25;5.65;;;23.00;99.90;;;;;;6207482;28;89976;-63
2022/10/05 04:21:10;;;;;;;6.60;6.00;;;23.00;99.90;;;;;;6185619;28;88282;-63
2022/10/05 04:24:18;;;;;;;6.20;5.60;;;23.00;99.90;;;;;;6205227;28;88241;-63
2022/10/05 04:27:23;;;;;;;7.03;6.32;;;23.00;99.90;;;;;;6199552;28;89379;-63
2022/10/05 04:30:26;;;;;;;6.70;6.10;;;23.00;99.90;;;;;;6204860;28;89049;-65
2022/10/05 04:33:28;;;;;;;6.78;6.18;;;23.00;99.90;;;;;;6208517;28;87943;-63
2022/10/05 04:36:35;;;;;;;7.10;6.40;;;23.00;99.90;;;;;;6206188;28;89458;-63
2022/10/05 04:39:46;;;;;;;6.55;5.95;;;23.00;99.90;;;;;;6197950;28;88349;-63
2022/10/05 04:42:57;;;;;;;6.50;5.90;;;23.10;99.90;;;;;;6184237;28;89181;-63
2022/10/05 04:46:27;;;;;;;7.20;6.50;;;23.10;99.90;;;;;;6196178;28;89175;-63
2022/10/05 04:49:47;;;;;;;7.50;6.80;;;23.10;99.90;;;;;;6196975;28;90300;-63
2022/10/05 04:52:57;;;;;;;7.40;6.70;;;23.10;99.90;;;;;;6192687;28;89036;-63
2022/10/05 04:56:06;;;;;;;7.13;6.50;;;23.10;99.90;;;;;;6198836;28;88987;-63
2022/10/05 04:59:34;;;;;;;7.40;6.70;;;23.10;99.90;;;;;;6191122;28;87805;-63
2022/10/05 05:02:57;;;;;;;7.38;6.68;;;23.10;99.90;;;;;;6198995;28;89078;-63
2022/10/05 05:06:09;;;;;;;7.50;6.80;;;23.10;99.90;;;;;;6205055;28;89086;-63
2022/10/05 05:09:27;;;;;;;7.45;6.75;;;23.10;99.90;;;;;;6189876;28;89040;-63
2022/10/05 05:12:43;;;;;;;7.38;6.68;;;23.20;99.90;;;;;;6201673;28;87774;-63
2022/10/05 05:15:52;;;;;;;7.68;6.90;;;23.10;99.90;;;;;;6201481;28;89283;-63
2022/10/05 05:19:14;;;;;;;7.40;6.70;;;23.20;99.90;;;;;;6200733;28;89050;-63
2022/10/05 05:22:24;;;;;;;7.78;7.07;;;23.20;99.90;;;;;;6201050;28;90198;-63
2022/10/05 05:25:39;;;;;;;7.60;6.90;;;23.20;99.90;;;;;;6200216;28;89152;-63
2022/10/05 05:28:51;;;;;;;7.82;7.00;;;23.20;99.90;;;;;;6205783;28;87954;-63
2022/10/05 05:32:01;;;;;;;7.53;6.82;;;23.20;99.90;;;;;;6206691;28;88997;-63
2022/10/05 05:35:25;;;;;;;8.07;7.38;;;23.20;99.90;;;;;;6206559;28;89201;-63
2022/10/05 05:38:33;;;;;;;7.68;6.97;;;23.20;99.90;;;;;;6165538;28;89127;-63
2022/10/05 05:41:39;;;;;;;8.05;7.35;;;23.10;99.90;;;;;;6196903;28;89557;-63
2022/10/05 05:44:46;;;;;;;8.02;7.22;;;23.20;99.90;;;;;;6192948;28;88386;-63
2022/10/05 05:47:52;;;;;;;7.55;6.85;;;23.10;99.90;;;;;;6202679;28;87895;-63
2022/10/05 05:50:59;;;;;;;8.02;7.32;;;23.10;99.90;;;;;;6194812;28;89120;-63
2022/10/05 05:54:25;;;;;;;7.68;6.97;;;23.20;99.90;;;;;;6192965;28;89958;-63
2022/10/05 05:57:32;;;;;;;8.20;7.40;;;23.10;99.90;;;;;;6199973;28;88188;-63
2022/10/05 06:00:41;;;;;;;8.70;7.82;;;23.10;99.90;;;;;;6200137;28;89156;-63
2022/10/05 06:03:46;;;;;;;8.40;7.60;;;23.10;99.90;;;;;;6198767;28;89105;-63
2022/10/05 06:06:51;;;;;;;8.07;7.28;;;23.10;99.90;;;;;;6205210;28;89031;-63
2022/10/05 06:09:59;;;;;;;7.95;7.15;;;23.10;99.90;;;;;;6205565;28;89512;-63
2022/10/05 06:13:08;;;;;;;7.95;7.25;;;23.20;99.90;;;;;;6184506;28;89081;-63
2022/10/05 06:16:18;;;;;;;8.45;7.65;;;23.20;99.90;;;;;;6195562;28;88479;-62
2022/10/05 06:19:23;;;;;;;8.20;7.40;;;23.20;99.90;;;;;;6202107;28;89302;-63
2022/10/05 06:22:33;;;;;;;8.88;7.97;;;23.20;99.90;;;;;;6193778;28;88976;-62
2022/10/05 06:25:48;;;;;;;8.93;7.80;;;23.20;99.90;;;;;;6189293;28;90007;-63
2022/10/05 06:28:56;;;;;;;8.25;7.45;;;23.20;99.90;;;;;;6200338;28;89098;-63
2022/10/05 06:32:06;;;;;;;8.40;7.40;;;23.30;99.90;;;;;;6203101;28;89098;-63
2022/10/05 06:35:19;;;;;;;7.93;7.13;;;23.30;99.90;;;;;;6191119;28;89308;-63
2022/10/05 06:38:53;;;;;;;8.40;7.60;;;23.30;99.90;;;;;;6206122;28;89053;-63
2022/10/05 06:42:19;;;;;;;8.60;7.75;;;23.30;99.90;;;;;;6182380;28;89226;-63
2022/10/05 06:45:31;;;;;;;8.07;7.38;;;23.30;99.90;;;;;;6193651;28;89682;-63
2022/10/05 06:48:47;;;;;;;8.65;7.78;;;23.30;99.90;;;;;;6194526;28;87291;-62
2022/10/05 06:51:55;;;;;;;8.20;7.40;;;23.30;99.90;;;;;;6181877;28;88975;-63
2022/10/05 06:55:11;;;;;;;8.23;7.43;;;23.30;99.90;;;;;;6194022;28;88028;-63
2022/10/05 06:58:35;;;;;;;8.35;7.32;;;23.30;99.90;;;;;;6193889;28;89945;-63
2022/10/05 07:01:50;;;;;;;8.43;7.60;;;23.30;99.90;;;;;;6194644;28;89063;-63
2022/10/05 07:05:29;;;;;;;8.98;8.05;;;23.30;99.90;;;;;;6206149;28;89093;-63
2022/10/05 07:08:53;;;;;;;8.40;7.50;;;23.30;99.90;;;;;;6193583;28;88968;-63
2022/10/05 07:12:10;;;;;;;8.25;7.40;;;23.30;99.90;;;;;;6193852;28;89603;-63
2022/10/05 07:15:35;;;;;;;8.23;7.43;;;23.30;99.90;;;;;;6204497;28;89078;-63
2022/10/05 07:18:50;;;;;;;7.97;7.18;;;23.30;99.90;;;;;;6193907;28;89134;-63
2022/10/05 07:22:11;;;;;;;8.15;7.35;;;23.40;99.90;;;;;;6198167;28;88613;-63
2022/10/05 07:25:17;;;;;;;8.10;7.30;;;23.40;99.90;;;;;;6191444;28;88896;-63
2022/10/05 07:28:27;;;;;;;7.85;7.05;;;23.40;99.90;;;;;;6201895;28;89166;-63
2022/10/05 07:31:35;;;;;;;7.93;7.07;;;23.40;99.90;;;;;;6209103;28;88979;-63
2022/10/05 07:34:47;;;;;;;8.07;7.28;;;23.40;99.90;;;;;;6204603;28;89041;-63
2022/10/05 07:37:54;;;;;;;8.18;7.38;;;23.40;99.90;;;;;;6201125;28;87960;-63
2022/10/05 07:41:02;;;;;;;8.45;7.60;;;23.40;99.90;;;;;;6198836;28;89067;-63
2022/10/05 07:44:12;;;;;;;8.40;7.18;;;23.40;99.90;;;;;;6199409;28;89197;-63
2022/10/05 07:47:23;;;;;;;9.30;7.40;;;23.40;99.90;;;;;;6185865;28;89328;-63
2022/10/05 07:50:34;;;;;;;7.82;6.88;;;23.40;99.90;;;;;;6197991;28;89049;-63
2022/10/05 07:53:39;;;;;;;8.02;7.00;;;23.40;99.90;;;;;;6198514;28;88393;-63
2022/10/05 07:56:43;;;;;;;7.55;6.78;;;23.40;99.90;;;;;;6198008;28;89175;-63
2022/10/05 07:59:55;;;;;;;7.20;6.50;;;23.40;99.90;;;;;;6187214;28;89134;-63
2022/10/05 08:03:06;;;;;;;7.75;7.00;;;23.40;99.90;;;;;;6198265;28;90132;-63
2022/10/05 08:06:13;;;;;;;8.00;7.20;;;23.40;99.90;;;;;;6196261;28;89110;-63
2022/10/05 08:09:40;;;;;;;7.38;6.68;;;23.40;99.90;;;;;;6202049;28;89058;-63
2022/10/05 08:13:00;;;;;;;7.88;7.07;;;23.40;99.90;;;;;;6202822;28;89204;-63
2022/10/05 08:16:05;;;;;;;7.82;7.00;;;23.40;99.90;;;;;;6203611;28;89118;-63
2022/10/05 08:19:17;;;;;;;8.18;6.70;;;23.40;99.90;;;;;;6199740;28;87994;-63
2022/10/05 08:22:26;;;;;;;8.07;7.28;;;23.40;99.90;;;;;;6204101;28;88990;-63
2022/10/05 08:25:40;;;;;;;7.85;6.60;;;23.40;99.90;;;;;;6198913;28;88306;-63
2022/10/05 08:28:47;;;;;;;7.75;6.93;;;23.40;99.90;;;;;;6192879;28;89090;-63
2022/10/05 08:31:52;;;;;;;7.60;6.78;;;23.40;99.90;;;;;;6207363;28;89148;-63
2022/10/05 08:35:01;;;;;;;7.80;7.00;;;23.40;99.90;;;;;;6188508;28;89661;-63
2022/10/05 08:38:06;;;;;;;8.23;7.30;;;23.40;99.90;;;;;;6194172;28;89346;-63
2022/10/05 08:41:41;;;;;;;7.93;7.13;;;23.40;99.90;;;;;;6205653;28;89044;-63
2022/10/05 08:45:10;;;;;;;8.30;7.05;;;23.50;99.90;;;;;;6197225;28;89053;-63
2022/10/05 08:48:39;;;;;;;7.63;6.82;;;23.50;99.90;;;;;;6192913;28;89136;-63
2022/10/05 08:52:16;;;;;;;7.63;6.93;;;23.50;99.90;;;;;;6199873;28;89046;-63
2022/10/05 08:55:43;;;;;;;7.50;6.80;;;23.50;99.90;;;;;;6197907;28;89250;-63
2022/10/05 08:59:14;;;;;;;7.53;6.55;;;23.50;99.90;;;;;;6188291;28;88312;-63
2022/10/05 09:02:28;;;;;;;7.15;6.45;;;23.50;99.90;;;;;;6196176;28;89402;-63
2022/10/05 09:06:06;;;;;;;8.18;7.07;;;23.40;99.90;;;;;;6201372;28;89052;-63
2022/10/05 09:09:48;;;;;;;8.13;7.22;;;23.40;99.90;;;;;;6206716;28;90320;-63
2022/10/05 09:13:18;;;;;;;7.53;6.70;;;23.40;99.90;;;;;;6188099;28;89028;-63
2022/10/05 09:16:53;;;;;;;7.75;6.95;;;23.50;99.90;;;;;;6193813;28;89050;-63
2022/10/05 09:20:22;;;;;;;7.05;6.32;;;23.50;99.90;;;;;;6196317;28;88975;-63
2022/10/05 09:23:39;;;;;;;6.80;6.10;;;23.50;99.90;;;;;;6184925;28;89038;-63
2022/10/05 09:26:52;;;;;;;7.70;6.60;;;23.50;99.90;;;;;;6206048;28;89056;-63
2022/10/05 09:30:18;;;;;;;6.78;6.05;;;23.50;99.90;;;;;;6205247;28;89064;-63
2022/10/05 09:33:52;;;;;;;7.00;6.30;;;23.50;99.90;;;;;;6203492;28;87195;-63
2022/10/05 09:37:35;;;;;;;6.88;6.18;;;23.50;99.90;;;;;;6197247;28;89099;-63
2022/10/05 09:41:13;;;;;;;6.95;6.25;;;23.50;99.90;;;;;;6128645;28;89105;-63
2022/10/05 09:44:52;;;;;;;6.82;6.13;;;23.50;99.90;;;;;;6135509;28;89967;-63
2022/10/05 09:48:19;;;;;;;6.95;6.18;;;23.50;99.90;;;;;;6206067;28;89194;-63
2022/10/05 09:51:55;;;;;;;6.82;6.13;;;23.50;99.90;;;;;;6185614;28;88978;-62
2022/10/05 09:55:30;;;;;;;6.57;5.88;;;23.50;99.90;;;;;;6194733;28;89159;-63
2022/10/05 09:59:20;;;;;;;7.43;6.40;;;23.50;99.90;;;;;;6197159;28;88001;-63
2022/10/05 10:02:42;;;;;;;7.68;6.18;;;23.50;99.90;;;;;;6193728;28;89122;-63
2022/10/05 10:06:00;;;;;;;6.90;6.20;;;23.50;99.90;;;;;;6188927;28;89147;-63
2022/10/05 10:09:16;;;;;;;6.70;6.00;;;23.60;99.90;;;;;;6200433;28;88260;-63
2022/10/05 10:12:42;;;;;;;6.88;5.97;;;23.50;99.90;;;;;;6191257;28;88982;-63
2022/10/05 10:16:17;;;;;;;6.38;5.68;;;23.60;99.90;;;;;;6206090;28;89003;-63
2022/10/05 10:19:55;;;;;;;6.57;5.95;;;23.60;99.90;;;;;;6188798;28;89959;-63
2022/10/05 10:23:31;;;;;;;6.82;6.13;;;23.60;99.90;;;;;;6190467;28;89058;-62
2022/10/05 10:26:58;;;;;;;6.45;5.85;;;23.60;99.90;;;;;;6197631;28;87999;-63
2022/10/05 10:30:23;;;;;;;5.88;5.20;;;23.60;99.90;;;;;;6199958;28;89075;-62
2022/10/05 10:34:08;;;;;;;6.13;5.53;;;23.60;99.90;;;;;;6192953;28;89500;-63
2022/10/05 10:37:33;;;;;;;6.82;5.80;;;23.60;99.90;;;;;;6204693;28;89614;-62
2022/10/05 10:40:41;;;;;;;5.97;5.38;;;23.60;99.90;;;;;;6192239;28;88099;-63
2022/10/05 10:44:19;;;;;;;6.20;5.53;;;23.60;99.90;;;;;;6194723;28;88257;-63
2022/10/05 10:47:59;;;;;;;6.35;5.70;;;23.60;99.90;;;;;;6159485;28;89021;-63
2022/10/05 10:51:17;;;;;;;6.70;6.00;;;23.60;99.90;;;;;;6193652;28;89078;-63
2022/10/05 10:55:00;;;;;;;5.82;5.28;;;23.60;99.90;;;;;;6192430;28;89937;-63
2022/10/05 10:58:42;;;;;;;6.20;5.60;;;23.60;99.90;;;;;;6200146;28;88968;-63
2022/10/05 11:02:02;;;;;;;6.20;5.60;;;23.60;99.90;;;;;;6173872;28;89395;-63
2022/10/05 11:05:30;;;;;;;5.70;5.20;;;23.60;99.90;;;;;;6202767;28;88008;-63
2022/10/05 11:09:07;;;;;;;5.72;5.13;;;23.60;99.90;;;;;;6193548;28;87936;-63
2022/10/05 11:12:44;;;;;;;6.05;5.45;;;23.60;99.90;;;;;;6205097;28;89151;-63
2022/10/05 11:16:19;;;;;;;5.28;4.78;;;23.60;99.90;;;;;;6197633;28;89064;-63
2022/10/05 11:19:49;;;;;;;5.80;5.25;;;23.60;99.90;;;;;;6185114;28;88297;-63
2022/10/05 11:22:58;;;;;;;6.03;5.43;;;23.60;99.90;;;;;;6202149;28;89434;-63
2022/10/05 11:26:17;;;;;;;5.45;4.95;;;23.60;99.90;;;;;;6185401;28;89095;-63
2022/10/05 11:29:55;;;;;;;5.82;5.22;;;23.60;99.90;;;;;;6195893;28;90281;-63
2022/10/05 11:33:32;;;;;;;5.93;5.28;;;23.60;99.90;;;;;;6203785;28;89157;-63
2022/10/05 11:37:06;;;;;;;6.80;6.07;;;23.60;99.90;;;;;;6197182;28;89122;-63
2022/10/05 11:40:42;;;;;;;5.68;5.18;;;23.60;99.90;;;;;;6197094;28;89301;-63
2022/10/05 11:44:14;;;;;;;5.55;5.03;;;23.60;99.90;;;;;;6179983;28;89091;-62
2022/10/05 11:47:24;;;;;;;5.53;5.00;;;23.60;99.90;;;;;;6193759;28;89079;-63
2022/10/05 11:50:32;;;;;;;6.00;5.40;;;23.60;99.90;;;;;;6193927;28;88722;-63
2022/10/05 11:53:39;;;;;;;5.70;5.10;;;23.60;99.90;;;;;;6193791;28;87149;-63
2022/10/05 11:56:44;;;;;;;5.43;4.93;;;23.60;99.90;;;;;;6181275;28;89127;-63
2022/10/05 11:59:53;;;;;;;5.07;4.57;;;23.60;99.90;;;;;;6200228;28;89348;-63
2022/10/05 12:03:35;;;;;;;5.45;4.95;;;23.60;99.90;;;;;;6201895;28;89953;-62
2022/10/05 12:06:59;;;;;;;5.45;4.95;;;23.60;99.90;;;;;;6197918;28;92017;-63
2022/10/05 12:10:16;;;;;;;5.57;5.00;;;23.60;99.90;;;;;;6179966;28;89077;-63
2022/10/05 12:13:25;;;;;;;5.18;4.68;;;23.60;99.90;;;;;;6196381;28;90126;-63
2022/10/05 12:16:34;;;;;;;5.40;4.90;;;23.60;99.90;;;;;;6195948;28;88131;-62
2022/10/05 12:19:39;;;;;;;6.47;5.05;;;23.60;99.90;;;;;;6185068;28;89536;-63
2022/10/05 12:22:46;;;;;;;5.20;4.70;;;23.60;99.90;;;;;;6197222;28;87937;-63
2022/10/05 12:25:53;;;;;;;5.30;4.80;;;23.60;99.90;;;;;;6197669;28;88241;-63
2022/10/05 12:29:01;;;;;;;4.88;4.40;;;23.60;99.90;;;;;;6194962;28;89406;-63
2022/10/05 12:32:11;;;;;;;5.32;4.78;;;23.60;99.90;;;;;;6208051;28;88962;-63
2022/10/05 12:35:21;;;;;;;5.05;4.55;;;23.60;99.90;;;;;;6197597;28;90157;-63
2022/10/05 12:38:28;;;;;;;5.00;4.50;;;23.60;99.90;;;;;;6203184;28;89140;-63
2022/10/05 12:41:35;;;;;;;5.30;4.80;;;23.60;99.90;;;;;;6198646;28;89089;-63
2022/10/05 12:44:54;;;;;;;5.28;4.78;;;23.60;99.90;;;;;;6205623;28;88947;-63
2022/10/05 12:48:17;;;;;;;4.90;4.40;;;23.60;99.90;;;;;;6184598;28;89247;-63
2022/10/05 12:51:28;;;;;;;5.57;5.07;;;23.60;99.90;;;;;;6194138;28;89111;-63
2022/10/05 12:54:42;;;;;;;5.53;4.78;;;23.60;99.90;;;;;;6199865;28;87726;-63
2022/10/05 12:57:56;;;;;;;4.97;4.47;;;23.60;99.90;;;;;;6204021;28;88722;-63
2022/10/05 13:01:07;;;;;;;5.22;4.72;;;23.60;99.90;;;;;;6202989;28;89329;-63
2022/10/05 13:04:30;;;;;;;4.78;4.28;;;23.60;99.90;;;;;;6203816;28;89071;-63
2022/10/05 13:07:54;;;;;;;5.20;4.70;;;23.60;99.90;;;;;;6193817;28;90049;-63
2022/10/05 13:11:03;;;;;;;5.30;4.80;;;23.60;99.90;;;;;;6201221;28;89024;-63
2022/10/05 13:14:16;;;;;;;5.00;4.38;;;23.60;99.90;;;;;;6188228;28;89062;-63
2022/10/05 13:17:25;;;;;;;4.95;4.47;;;23.60;99.90;;;;;;6201623;28;89045;-63
2022/10/05 13:20:34;;;;;;;5.00;4.50;;;23.60;99.90;;;;;;6196967;28;87996;-63
2022/10/05 13:23:50;;;;;;;4.78;4.28;;;23.60;99.90;;;;;;6192908;28;89132;-63
2022/10/05 13:26:58;;;;;;;4.68;4.25;;;23.60;99.90;;;;;;6194014;28;89184;-63
2022/10/05 13:30:04;;;;;;;5.03;4.45;;;23.60;99.90;;;;;;6207037;28;88725;-63
2022/10/05 13:33:16;;;;;;;4.53;4.10;;;23.60;99.90;;;;;;6205482;28;89123;-63
2022/10/05 13:36:30;;;;;;;4.90;4.40;;;23.60;99.90;;;;;;6197715;28;89867;-63
2022/10/05 13:39:46;;;;;;;5.45;4.50;;;23.50;99.90;;;;;;6192221;28;90278;-63
2022/10/05 13:42:55;;;;;;;4.55;4.15;;;23.60;99.90;;;;;;6200976;28;89107;-63
2022/10/05 13:46:06;;;;;;;4.57;4.13;;;23.60;99.90;;;;;;6204159;28;89234;-63
2022/10/05 13:49:21;;;;;;;4.75;4.22;;;23.60;99.90;;;;;;6200950;28;88982;-63
2022/10/05 13:52:34;;;;;;;4.70;4.10;;;23.60;99.90;;;;;;6202993;28;88821;-63
2022/10/05 13:55:43;;;;;;;4.72;4.22;;;23.60;99.90;;;;;;6201740;28;89481;-63
2022/10/05 13:58:50;;;;;;;4.40;4.00;;;23.60;99.90;;;;;;6192722;28;89314;-63
2022/10/05 14:01:58;;;;;;;4.43;4.03;;;23.50;99.90;;;;;;6204724;28;88295;-63
2022/10/05 14:05:03;;;;;;;4.95;4.45;;;23.50;99.90;;;;;;6207557;28;89092;-63
2022/10/05 14:08:17;;;;;;;4.72;4.28;;;23.60;99.90;;;;;;6204109;28;89392;-63
2022/10/05 14:11:26;;;;;;;4.97;4.28;;;23.60;99.90;;;;;;6192515;28;89045;-63
2022/10/05 14:14:31;;;;;;;4.53;4.13;;;23.60;99.90;;;;;;6193707;28;89430;-63
2022/10/05 14:17:39;;;;;;;4.43;4.03;;;23.60;99.90;;;;;;6185775;28;89089;-63
2022/10/05 14:20:58;;;;;;;3.95;3.65;;;23.60;99.90;;;;;;6195146;28;89080;-63
2022/10/05 14:24:20;;;;;;;4.50;4.10;;;23.60;99.90;;;;;;6188672;28;89546;-63
2022/10/05 14:27:26;;;;;;;4.30;3.90;;;23.60;99.90;;;;;;6197597;28;89350;-63
2022/10/05 14:30:30;;;;;;;4.25;3.85;;;23.60;99.90;;;;;;6200245;28;89337;-63
2022/10/05 14:33:34;;;;;;;4.85;3.90;;;23.50;99.90;;;;;;6206452;28;88275;-63
2022/10/05 14:36:39;;;;;;;4.85;4.35;;;23.60;99.90;;;;;;6203099;28;89426;-63
2022/10/05 14:39:42;;;;;;;4.57;4.18;;;23.50;99.90;;;;;;6203189;28;88293;-63
2022/10/05 14:42:45;;;;;;;4.40;4.00;;;23.60;99.90;;;;;;6194855;28;88868;-63
2022/10/05 14:45:55;;;;;;;4.45;3.90;;;23.50;99.90;;;;;;6182472;28;88818;-63
2022/10/05 14:49:23;;;;;;;4.20;3.80;;;23.50;99.90;;;;;;6203840;28;87940;-63
2022/10/05 14:52:31;;;;;;;4.32;3.92;;;23.50;99.90;;;;;;6194331;28;89199;-63
2022/10/05 14:56:02;;;;;;;4.13;3.72;;;23.50;99.90;;;;;;6182273;28;89002;-63
2022/10/05 14:59:38;;;;;;;4.43;3.92;;;23.50;99.90;;;;;;6193881;28;89006;-63
2022/10/05 15:03:25;;;;;;;4.40;3.75;;;23.50;99.90;;;;;;6197818;28;89253;-63
2022/10/05 15:06:33;;;;;;;4.13;3.72;;;23.50;99.90;;;;;;6185690;28;88612;-63
2022/10/05 15:09:44;;;;;;;4.07;3.67;;;23.50;99.90;;;;;;6201474;28;89539;-63
2022/10/05 15:12:48;;;;;;;4.00;3.60;;;23.50;99.90;;;;;;6204012;28;89129;-63
2022/10/05 15:15:53;;;;;;;4.10;3.70;;;23.50;99.90;;;;;;6203791;28;90086;-63
2022/10/05 15:19:03;;;;;;;4.25;3.85;;;23.50;99.90;;;;;;6188052;28;88940;-63
2022/10/05 15:22:19;;;;;;;3.63;3.33;;;23.50;99.90;;;;;;6184732;28;89141;-63
2022/10/05 15:25:25;;;;;;;3.83;3.53;;;23.50;99.90;;;;;;6203835;28;89048;-63
2022/10/05 15:28:37;;;;;;;4.38;3.97;;;23.50;99.90;;;;;;6204989;28;87959;-63
2022/10/05 15:31:47;;;;;;;3.75;3.45;;;23.50;99.90;;;;;;6191622;28;87957;-63
2022/10/05 15:35:00;;;;;;;4.00;3.60;;;23.50;99.90;;;;;;6198641;28;89093;-63
2022/10/05 15:38:11;;;;;;;4.13;3.72;;;23.50;99.90;;;;;;6185989;28;88338;-63
2022/10/05 15:41:18;;;;;;;3.88;3.58;;;23.50;99.90;;;;;;6189490;28;89889;-63
2022/10/05 15:44:37;;;;;;;4.10;3.70;;;23.50;99.90;;;;;;6190679;28;89102;-63
2022/10/05 15:47:50;;;;;;;3.90;3.50;;;23.50;99.90;;;;;;6194833;28;90077;-63
2022/10/05 15:51:00;;;;;;;3.75;3.22;;;23.50;99.90;;;;;;6193715;28;89112;-66
2022/10/05 15:57:36;;;;;;;3.70;3.40;;;23.50;99.90;;;;;;6195958;28;87347;-63
2022/10/05 16:00:46;;;;;;;4.05;3.65;;;23.50;99.90;;;;;;6203100;28;87971;-63
2022/10/05 16:03:54;;;;;;;3.78;3.47;;;23.50;99.90;;;;;;6199063;28;89064;-63
2022/10/05 16:10:22;;;;;;;4.13;3.72;;;23.50;99.90;;;;;;6201374;28;86750;-64
2022/10/05 16:13:32;;;;;;;4.97;3.53;;;23.50;99.90;;;;;;6195904;28;89515;-64
2022/10/05 16:16:45;;;;;;;4.00;3.28;;;23.50;99.90;;;;;;6197764;28;88834;-64
2022/10/05 16:19:59;;;;;;;4.05;3.53;;;23.50;99.90;;;;;;6198884;28;90468;-65
2022/10/05 16:23:08;;;;;;;4.10;3.70;;;23.50;99.90;;;;;;6182004;28;89086;-64
2022/10/05 16:26:22;;;;;;;4.00;3.60;;;23.50;99.90;;;;;;6195774;28;89077;-64
2022/10/05 16:29:37;;;;;;;4.45;3.80;;;23.50;99.90;;;;;;6198553;28;89142;-64
2022/10/05 16:32:48;;;;;;;3.45;3.15;;;23.50;99.90;;;;;;6198753;28;88847;-65
2022/10/05 16:36:02;;;;;;;3.50;3.15;;;23.50;99.90;;;;;;6205812;28;89043;-64
2022/10/05 16:39:10;;;;;;;3.85;3.45;;;23.50;99.90;;;;;;6196495;28;89047;-64
2022/10/05 16:42:23;;;;;;;3.90;3.10;;;23.50;99.90;;;;;;6192364;28;88311;-64
2022/10/05 16:45:38;;;;;;;3.88;3.47;;;23.50;99.90;;;;;;6198381;28;89324;-65
2022/10/05 16:48:52;;;;;;;5.82;3.53;;;23.60;99.90;;;;;;6202443;28;87901;-63
2022/10/05 16:51:58;;;;;;;4.45;3.28;;;23.50;99.90;;;;;;6200561;28;90392;-61
2022/10/05 16:55:05;;;;;;;3.70;3.30;;;23.50;99.90;;;;;;6206405;28;89048;-63
2022/10/05 16:58:15;;;;;;;4.43;3.30;;;23.50;99.90;;;;;;6192345;28;89093;-63
2022/10/05 17:01:30;;;;;;;5.55;3.70;;;23.60;99.90;;;;;;6187794;28;89469;-63